createdAt,value
2022-10-23T00:05:40.996Z,86.49
2022-10-23T00:11:07.599Z,86.57
2022-10-23T00:16:30.537Z,86.70
2022-10-23T00:21:52.767Z,86.58
2022-10-23T00:27:14.709Z,86.20
2022-10-23T00:32:37.325Z,86.18
2022-10-23T00:37:59.147Z,86.32
2022-10-23T00:43:24.944Z,86.18
2022-10-23T00:48:46.693Z,85.89
2022-10-23T00:54:23.526Z,85.41
2022-10-23T00:59:46.137Z,84.68
2022-10-23T01:05:09.150Z,84.71
2022-10-23T01:10:46.383Z,84.70
2022-10-23T01:16:18.932Z,84.99
2022-10-23T01:21:52.982Z,85.13
2022-10-23T01:27:22.914Z,84.96
2022-10-23T01:33:01.927Z,84.80
2022-10-23T01:38:35.846Z,84.76
2022-10-23T01:44:25.861Z,84.73
2022-10-23T01:49:50.732Z,84.62
2022-10-23T01:55:13.946Z,84.72
2022-10-23T02:00:39.800Z,84.86
2022-10-23T02:06:02.928Z,84.78
2022-10-23T02:11:25.076Z,85.16
2022-10-23T02:16:51.946Z,85.19
2022-10-23T02:22:21.332Z,85.43
2022-10-23T02:27:50.682Z,85.57
2022-10-23T02:33:14.803Z,85.89
2022-10-23T02:38:42.948Z,85.83
2022-10-23T02:44:19.976Z,86.20
2022-10-23T02:50:23.790Z,86.07
2022-10-23T02:56:02.384Z,85.93
2022-10-23T03:01:54.868Z,85.88
2022-10-23T03:07:19.906Z,85.77
2022-10-23T03:12:43.006Z,85.69
2022-10-23T03:18:05.541Z,85.62
2022-10-23T03:23:28.258Z,85.70
2022-10-23T03:28:50.514Z,85.77
2022-10-23T03:34:15.120Z,85.91
2022-10-23T03:39:37.197Z,85.84
2022-10-23T03:44:59.596Z,85.65
2022-10-23T03:50:21.806Z,85.59
2022-10-23T03:55:46.841Z,85.84
2022-10-23T04:01:08.891Z,85.62
2022-10-23T04:06:31.191Z,85.51
2022-10-23T04:11:55.961Z,85.86
2022-10-23T04:17:23.450Z,85.93
2022-10-23T04:22:45.760Z,85.90
2022-10-23T04:28:08.275Z,85.62
2022-10-23T04:33:33.841Z,85.22
2022-10-23T04:38:56.171Z,84.99
2022-10-23T04:44:18.419Z,85.12
2022-10-23T04:49:40.928Z,85.10
2022-10-23T04:55:12.465Z,85.12
2022-10-23T05:00:39.536Z,85.12
2022-10-23T05:06:01.473Z,84.97
2022-10-23T05:11:42.648Z,85.10
2022-10-23T05:17:30.515Z,85.13
2022-10-23T05:22:55.757Z,85.13
2022-10-23T05:28:19.945Z,85.02
2022-10-23T05:33:41.920Z,85.05
2022-10-23T05:39:05.189Z,85.44
2022-10-23T05:44:27.865Z,85.97
2022-10-23T05:50:05.432Z,86.43
2022-10-23T05:56:53.148Z,86.92
2022-10-23T06:03:04.882Z,87.36
2022-10-23T06:08:31.248Z,87.56
2022-10-23T06:13:54.102Z,87.96
2022-10-23T06:19:17.462Z,87.91
2022-10-23T06:24:39.820Z,87.94
2022-10-23T06:30:08.099Z,88.02
2022-10-23T06:35:30.314Z,88.16
2022-10-23T06:41:01.939Z,88.60
2022-10-23T06:46:33.055Z,88.67
2022-10-23T06:52:18.476Z,89.14
2022-10-23T06:57:51.298Z,89.11
2022-10-23T07:03:13.325Z,89.48
2022-10-23T07:08:37.844Z,89.51
2022-10-23T07:14:07.292Z,89.24
2022-10-23T07:19:29.678Z,88.46
2022-10-23T07:24:53.611Z,88.39
2022-10-23T07:30:20.220Z,88.10
2022-10-23T07:35:47.679Z,88.31
2022-10-23T07:41:15.633Z,88.44
2022-10-23T07:46:38.189Z,88.29
2022-10-23T07:52:00.309Z,87.98
2022-10-23T07:57:29.472Z,87.51
2022-10-23T08:03:01.270Z,87.46
2022-10-23T08:08:26.137Z,87.15
2022-10-23T08:13:54.513Z,86.70
2022-10-23T08:20:19.491Z,86.46
2022-10-23T08:26:03.345Z,86.20
2022-10-23T08:31:27.665Z,85.88
2022-10-23T08:37:30.370Z,87.13
2022-10-23T08:43:23.100Z,87.28
2022-10-23T08:49:19.071Z,84.84
2022-10-23T08:55:23.437Z,84.03
2022-10-23T09:01:40.288Z,84.15
2022-10-23T09:08:08.780Z,83.85
2022-10-23T09:14:16.215Z,83.97
2022-10-23T09:20:46.567Z,82.55
2022-10-23T09:34:13.481Z,82.51
2022-10-23T09:40:04.139Z,82.43
2022-10-23T09:46:46.374Z,82.44
2022-10-23T09:52:39.343Z,82.72
2022-10-23T09:58:14.752Z,81.98
2022-10-23T10:04:17.691Z,81.79
2022-10-23T10:10:41.680Z,81.68
2022-10-23T10:17:13.518Z,80.20
2022-10-23T10:23:16.039Z,78.18
2022-10-23T10:29:50.132Z,77.45
2022-10-23T10:35:57.084Z,76.51
2022-10-23T10:43:03.284Z,74.34
2022-10-23T11:37:11.994Z,73.36
2022-10-23T11:42:49.430Z,73.15
2022-10-23T11:48:13.910Z,73.24
2022-10-23T11:53:35.511Z,72.95
2022-10-23T11:58:59.740Z,72.67
2022-10-23T12:04:26.734Z,72.53
2022-10-23T12:09:57.550Z,72.16
2022-10-23T12:15:22.239Z,71.98
2022-10-23T12:21:17.088Z,71.03
2022-10-23T12:27:12.573Z,69.39
2022-10-23T12:33:21.941Z,68.20
2022-10-23T12:38:46.261Z,66.65
2022-10-23T12:44:12.892Z,65.56
2022-10-23T12:49:36.240Z,65.14
2022-10-23T12:54:59.607Z,64.86
2022-10-23T13:00:24.327Z,63.99
2022-10-23T13:05:46.462Z,63.70
2022-10-23T13:11:14.314Z,63.52
2022-10-23T13:16:36.901Z,63.99
2022-10-23T13:22:01.548Z,64.22
2022-10-23T13:27:34.086Z,64.34
2022-10-23T13:32:56.244Z,63.48
2022-10-23T13:38:18.021Z,63.20
2022-10-23T13:43:40.154Z,61.95
2022-10-23T13:49:02.072Z,61.21
2022-10-23T13:54:29.146Z,61.16
2022-10-23T13:59:51.140Z,61.35
2022-10-23T14:05:13.159Z,61.85
2022-10-23T14:10:35.206Z,62.23
2022-10-23T14:15:57.381Z,62.99
2022-10-23T14:21:21.625Z,62.98
2022-10-23T14:26:43.593Z,62.73
2022-10-23T14:32:05.580Z,63.22
2022-10-23T14:37:27.700Z,63.02
2022-10-23T14:42:49.768Z,63.17
2022-10-23T14:48:11.398Z,63.50
2022-10-23T14:53:32.955Z,63.90
2022-10-23T14:59:04.492Z,64.57
2022-10-23T15:04:26.397Z,65.27
2022-10-23T15:09:48.400Z,66.00
2022-10-23T15:15:10.342Z,66.71
2022-10-23T15:20:34.701Z,67.30
2022-10-23T15:26:02.256Z,67.93
2022-10-23T15:31:47.002Z,68.49
2022-10-23T15:37:10.518Z,69.02
2022-10-23T15:42:32.452Z,69.58
2022-10-23T15:47:54.162Z,70.10
2022-10-23T15:53:16.417Z,70.37
2022-10-23T15:58:38.169Z,70.92
2022-10-23T16:04:03.251Z,71.18
2022-10-23T16:09:25.296Z,71.51
2022-10-23T16:14:46.956Z,72.10
2022-10-23T16:20:09.079Z,72.80
2022-10-23T16:25:31.088Z,73.19
2022-10-23T16:30:53.181Z,73.73
2022-10-23T16:36:16.016Z,73.90
2022-10-23T16:41:56.865Z,74.45
2022-10-23T16:47:22.289Z,74.79
2022-10-23T16:52:55.599Z,74.79
2022-10-23T16:58:21.078Z,75.03
2022-10-23T17:03:48.212Z,75.17
2022-10-23T17:09:10.206Z,75.88
2022-10-23T17:14:32.291Z,76.15
2022-10-23T17:19:59.394Z,77.15
2022-10-23T17:26:25.330Z,77.36
2022-10-23T17:33:09.347Z,77.48
2022-10-23T17:39:52.708Z,77.64
2022-10-23T17:46:35.581Z,78.13
2022-10-23T17:52:18.601Z,78.26
2022-10-23T17:57:42.902Z,78.16
2022-10-23T18:03:06.222Z,78.10
2022-10-23T18:08:28.257Z,78.26
2022-10-23T18:13:51.458Z,78.19
2022-10-23T18:19:15.122Z,78.08
2022-10-23T18:24:38.348Z,78.19
2022-10-23T18:30:00.545Z,78.43
2022-10-23T18:35:22.282Z,78.59
2022-10-23T18:40:44.408Z,78.79
2022-10-23T18:46:09.551Z,79.09
2022-10-23T18:51:35.908Z,79.57
2022-10-23T18:56:58.035Z,79.79
2022-10-23T19:02:20.291Z,79.72
2022-10-23T19:07:46.428Z,79.71
2022-10-23T19:13:08.643Z,79.41
2022-10-23T19:18:36.121Z,79.45
2022-10-23T19:24:01.994Z,79.91
2022-10-23T19:29:26.849Z,79.97
2022-10-23T19:34:48.724Z,80.25
2022-10-23T19:40:15.422Z,80.51
2022-10-23T19:45:48.336Z,81.19
2022-10-23T19:51:13.064Z,81.48
2022-10-23T19:56:39.489Z,81.93
2022-10-23T20:02:02.059Z,82.17
2022-10-23T20:07:24.568Z,82.30
2022-10-23T20:12:56.436Z,82.40
2022-10-23T20:18:26.117Z,82.32
2022-10-23T20:23:48.639Z,81.89
2022-10-23T20:29:11.137Z,81.68
2022-10-23T20:34:33.133Z,81.77
2022-10-23T20:39:55.511Z,81.79
2022-10-23T20:45:17.481Z,80.90
2022-10-23T20:50:39.553Z,80.69
2022-10-23T20:56:05.810Z,80.83
2022-10-23T21:01:29.149Z,80.94
2022-10-23T21:07:10.381Z,81.23
2022-10-23T21:12:33.404Z,81.78
2022-10-23T21:17:56.881Z,82.04
2022-10-23T21:23:22.261Z,81.90
2022-10-23T21:29:00.874Z,81.84
2022-10-23T21:34:33.740Z,82.16
2022-10-23T21:39:55.681Z,82.50
2022-10-23T21:45:17.440Z,82.67
2022-10-23T21:50:39.444Z,82.93
2022-10-23T21:56:05.521Z,82.91
2022-10-23T22:01:27.886Z,82.24
2022-10-23T22:06:50.186Z,81.90
2022-10-23T22:12:12.338Z,81.47
2022-10-23T22:17:34.488Z,81.74
2022-10-23T22:22:56.405Z,82.43
2022-10-23T22:28:18.597Z,82.64
2022-10-23T22:33:41.075Z,81.97
2022-10-23T22:39:04.987Z,82.33
2022-10-23T22:44:27.020Z,82.15
2022-10-23T22:49:48.685Z,82.53
2022-10-23T22:55:10.687Z,82.91
2022-10-23T23:00:32.336Z,83.26
2022-10-23T23:05:54.106Z,83.23
2022-10-23T23:11:19.530Z,82.62
2022-10-23T23:16:42.203Z,82.43
2022-10-23T23:22:04.971Z,82.43
2022-10-23T23:27:27.480Z,82.28
2022-10-23T23:32:50.989Z,82.73
2022-10-23T23:38:13.207Z,82.85
2022-10-23T23:43:35.200Z,83.09
2022-10-23T23:48:56.950Z,83.25
2022-10-23T23:54:18.721Z,83.01
2022-10-23T23:59:42.165Z,82.99
